createdAt,value
2023-09-22T00:00:13.067Z,99.99
2023-09-22T00:01:12.888Z,99.46
2023-09-22T00:02:12.904Z,99.36
2023-09-22T00:03:12.865Z,99.99
2023-09-22T00:04:12.927Z,99.82
2023-09-22T00:05:12.843Z,99.82
2023-09-22T00:06:12.935Z,99.32
2023-09-22T00:07:12.833Z,99.72
2023-09-22T00:08:12.826Z,99.62
2023-09-22T00:09:12.806Z,99.72
2023-09-22T00:10:12.833Z,99.99
2023-09-22T00:11:12.788Z,99.99
2023-09-22T00:12:12.803Z,99.92
2023-09-22T00:13:12.756Z,99.99
2023-09-22T00:14:12.764Z,99.99
2023-09-22T00:15:12.761Z,99.99
2023-09-22T00:16:12.771Z,99.99
2023-09-22T00:17:12.719Z,99.99
2023-09-22T00:18:12.737Z,99.99
2023-09-22T00:19:12.713Z,99.99
2023-09-22T00:20:12.699Z,99.99
2023-09-22T00:21:12.669Z,99.99
2023-09-22T00:22:12.674Z,99.99
2023-09-22T00:23:12.656Z,99.99
2023-09-22T00:24:12.653Z,99.99
2023-09-22T00:25:12.626Z,99.99
2023-09-22T00:26:12.610Z,99.99
2023-09-22T00:27:12.636Z,99.99
2023-09-22T00:28:12.695Z,99.99
2023-09-22T00:29:12.580Z,99.99
2023-09-22T00:30:12.606Z,99.99
2023-09-22T00:31:12.691Z,99.99
2023-09-22T00:32:12.777Z,99.99
2023-09-22T00:33:12.653Z,99.99
2023-09-22T00:34:12.570Z,99.66
2023-09-22T00:35:12.523Z,99.99
2023-09-22T00:36:12.531Z,99.77
2023-09-22T00:37:12.493Z,99.99
2023-09-22T00:38:12.497Z,99.99
2023-09-22T00:39:12.484Z,99.99
2023-09-22T00:40:12.474Z,99.99
2023-09-22T00:41:12.444Z,99.99
2023-09-22T00:42:12.470Z,99.99
2023-09-22T00:43:12.425Z,99.99
2023-09-22T00:44:12.460Z,99.99
2023-09-22T00:45:12.404Z,99.99
2023-09-22T00:46:12.456Z,99.99
2023-09-22T00:47:12.383Z,99.99
2023-09-22T00:48:12.394Z,99.99
2023-09-22T00:49:12.359Z,99.99
2023-09-22T00:50:12.393Z,99.99
2023-09-22T00:51:12.346Z,99.99
2023-09-22T00:52:12.394Z,99.71
2023-09-22T00:53:12.309Z,99.99
2023-09-22T00:54:12.337Z,99.99
2023-09-22T00:55:12.306Z,99.99
2023-09-22T00:56:12.311Z,99.99
2023-09-22T00:57:12.267Z,99.99
2023-09-22T00:58:12.292Z,99.99
2023-09-22T00:59:12.250Z,99.99
2023-09-22T01:00:12.276Z,99.99
2023-09-22T01:01:12.230Z,99.99
2023-09-22T01:02:12.295Z,99.99
2023-09-22T01:03:12.269Z,99.99
2023-09-22T01:04:12.309Z,99.99
2023-09-22T01:05:12.202Z,99.99
2023-09-22T01:06:12.209Z,99.99
2023-09-22T01:07:12.170Z,99.99
2023-09-22T01:08:12.166Z,99.99
2023-09-22T01:09:12.141Z,99.99
2023-09-22T01:10:12.157Z,99.99
2023-09-22T01:11:12.121Z,99.99
2023-09-22T01:12:12.147Z,99.99
2023-09-22T01:13:12.092Z,99.99
2023-09-22T01:14:12.110Z,99.99
2023-09-22T01:15:12.072Z,99.99
2023-09-22T01:16:12.118Z,99.99
2023-09-22T01:17:12.060Z,99.99
2023-09-22T01:18:12.059Z,99.99
2023-09-22T01:19:12.031Z,99.99
2023-09-22T01:20:12.048Z,99.99
2023-09-22T01:21:12.005Z,99.99
2023-09-22T01:22:12.031Z,99.99
2023-09-22T01:23:11.988Z,99.99
2023-09-22T01:24:12.003Z,99.99
2023-09-22T01:25:11.960Z,99.99
2023-09-22T01:26:11.985Z,99.99
2023-09-22T01:27:11.944Z,99.99
2023-09-22T01:28:11.976Z,99.99
2023-09-22T01:29:11.971Z,99.99
2023-09-22T01:30:11.935Z,99.99
2023-09-22T01:31:11.933Z,99.99
2023-09-22T01:32:11.910Z,99.99
2023-09-22T01:33:11.881Z,99.99
2023-09-22T01:34:11.903Z,99.99
2023-09-22T01:35:11.880Z,99.99
2023-09-22T01:36:11.858Z,99.99
2023-09-22T01:37:11.828Z,99.99
2023-09-22T01:38:11.834Z,99.99
2023-09-22T01:39:11.888Z,99.99
2023-09-22T01:40:11.834Z,99.99
2023-09-22T01:41:11.798Z,99.99
2023-09-22T01:42:11.825Z,99.99
2023-09-22T01:43:11.766Z,99.99
2023-09-22T01:44:11.832Z,99.99
2023-09-22T01:45:11.770Z,99.99
2023-09-22T01:46:11.858Z,99.99
2023-09-22T01:47:11.720Z,99.99
2023-09-22T01:48:11.737Z,99.99
2023-09-22T01:49:11.696Z,99.99
2023-09-22T01:50:11.746Z,99.99
2023-09-22T01:51:11.676Z,99.99
2023-09-22T01:52:11.713Z,99.99
2023-09-22T01:53:11.667Z,99.99
2023-09-22T01:54:11.659Z,99.99
2023-09-22T01:55:11.632Z,99.99
2023-09-22T01:56:11.649Z,99.99
2023-09-22T01:57:11.630Z,99.99
2023-09-22T01:58:11.632Z,99.99
2023-09-22T01:59:11.591Z,99.99
2023-09-22T02:00:11.652Z,99.99
2023-09-22T02:01:11.597Z,99.99
2023-09-22T02:02:11.585Z,99.99
2023-09-22T02:03:11.719Z,99.99
2023-09-22T02:04:11.726Z,99.99
2023-09-22T02:05:11.656Z,99.99
2023-09-22T02:06:11.544Z,99.99
2023-09-22T02:07:11.518Z,99.99
2023-09-22T02:08:11.530Z,99.99
2023-09-22T02:09:11.477Z,99.99
2023-09-22T02:10:11.517Z,99.99
2023-09-22T02:11:11.464Z,99.99
2023-09-22T02:12:11.474Z,99.99
2023-09-22T02:13:11.434Z,99.99
2023-09-22T02:14:11.484Z,99.99
2023-09-22T02:15:11.433Z,99.99
2023-09-22T02:16:11.497Z,99.99
2023-09-22T02:17:11.389Z,99.99
2023-09-22T02:18:11.438Z,99.99
2023-09-22T02:19:11.384Z,99.99
2023-09-22T02:20:11.393Z,99.99
2023-09-22T02:21:11.360Z,99.99
2023-09-22T02:22:11.350Z,99.99
2023-09-22T02:23:11.325Z,99.99
2023-09-22T02:24:11.342Z,99.99
2023-09-22T02:25:11.307Z,99.99
2023-09-22T02:26:11.316Z,99.99
2023-09-22T02:27:11.280Z,99.99
2023-09-22T02:28:11.303Z,99.99
2023-09-22T02:29:11.265Z,99.99
2023-09-22T02:30:11.290Z,99.99
2023-09-22T02:31:11.279Z,99.99
2023-09-22T02:32:11.251Z,99.99
2023-09-22T02:33:11.215Z,99.99
2023-09-22T02:34:11.224Z,99.99
2023-09-22T02:35:11.192Z,99.99
2023-09-22T02:36:11.199Z,99.99
2023-09-22T02:37:11.192Z,99.99
2023-09-22T02:38:11.196Z,99.99
2023-09-22T02:39:11.149Z,99.99
2023-09-22T02:40:11.175Z,99.99
2023-09-22T02:41:11.121Z,99.99
2023-09-22T02:42:11.181Z,99.99
2023-09-22T02:43:11.108Z,99.99
2023-09-22T02:44:11.140Z,99.99
2023-09-22T02:45:11.118Z,99.99
2023-09-22T02:46:11.252Z,99.99
2023-09-22T02:47:11.223Z,99.99
2023-09-22T02:48:11.094Z,99.99
2023-09-22T02:49:11.030Z,99.99
2023-09-22T02:50:11.096Z,99.99
2023-09-22T02:51:11.043Z,99.99
2023-09-22T02:52:12.217Z,99.99
2023-09-22T02:53:10.998Z,99.99
2023-09-22T02:54:11.010Z,99.99
2023-09-22T02:55:10.991Z,99.99
2023-09-22T02:56:10.989Z,99.99
2023-09-22T02:57:10.954Z,99.99
2023-09-22T02:58:10.967Z,99.99
2023-09-22T02:59:10.923Z,99.99
2023-09-22T03:00:10.945Z,99.99
2023-09-22T03:01:10.985Z,99.99
2023-09-22T03:02:10.955Z,99.99
2023-09-22T03:03:10.925Z,99.99
2023-09-22T03:04:11.035Z,99.99
2023-09-22T03:05:10.872Z,99.99
2023-09-22T03:06:10.868Z,99.99
2023-09-22T03:07:10.834Z,99.99
2023-09-22T03:08:10.848Z,99.99
2023-09-22T03:09:10.823Z,99.99
2023-09-22T03:10:10.815Z,99.99
2023-09-22T03:11:13.812Z,99.99
2023-09-22T03:12:10.782Z,99.99
2023-09-22T03:13:10.825Z,99.99
2023-09-22T03:14:10.771Z,99.99
2023-09-22T03:15:11.123Z,99.99
2023-09-22T03:16:10.802Z,99.99
2023-09-22T03:17:10.740Z,99.99
2023-09-22T03:18:10.736Z,99.99
2023-09-22T03:19:10.750Z,99.99
2023-09-22T03:20:10.692Z,99.99
2023-09-22T03:21:10.698Z,99.99
2023-09-22T03:22:10.684Z,99.99
2023-09-22T03:23:10.701Z,99.99
2023-09-22T03:24:10.653Z,99.99
2023-09-22T03:25:10.837Z,99.99
2023-09-22T03:26:10.625Z,99.99
2023-09-22T03:27:10.636Z,99.99
2023-09-22T03:28:10.610Z,99.99
2023-09-22T03:29:10.640Z,99.99
2023-09-22T03:30:10.604Z,99.99
2023-09-22T03:31:10.741Z,99.99
2023-09-22T03:32:10.566Z,99.99
2023-09-22T03:33:10.608Z,99.99
2023-09-22T03:34:10.560Z,99.99
2023-09-22T03:35:10.564Z,99.99
2023-09-22T03:36:10.542Z,99.99
2023-09-22T03:37:10.616Z,99.99
2023-09-22T03:38:10.506Z,99.99
2023-09-22T03:39:10.507Z,99.99
2023-09-22T03:40:10.567Z,99.99
2023-09-22T03:41:10.501Z,99.99
2023-09-22T03:42:10.476Z,99.99
2023-09-22T03:43:10.477Z,99.99
2023-09-22T03:44:10.433Z,99.99
2023-09-22T03:45:10.434Z,99.99
2023-09-22T03:46:10.491Z,99.99
2023-09-22T03:47:10.412Z,99.99
2023-09-22T03:48:10.455Z,99.99
2023-09-22T03:49:10.401Z,99.99
2023-09-22T03:50:10.383Z,99.99
2023-09-22T03:51:10.396Z,99.99
2023-09-22T03:52:10.347Z,99.99
2023-09-22T03:53:10.419Z,99.99
2023-09-22T03:54:10.331Z,99.99
2023-09-22T03:55:10.338Z,99.99
2023-09-22T03:56:10.356Z,99.99
2023-09-22T03:57:10.319Z,99.99
2023-09-22T03:58:10.280Z,99.99
2023-09-22T03:59:10.300Z,99.99
2023-09-22T04:00:10.257Z,99.99
2023-09-22T04:01:10.531Z,99.99
2023-09-22T04:02:10.236Z,99.99
2023-09-22T04:03:10.300Z,99.99
2023-09-22T04:04:10.317Z,99.99
2023-09-22T04:05:10.225Z,99.99
2023-09-22T04:06:10.189Z,99.99
2023-09-22T04:07:10.218Z,99.99
2023-09-22T04:08:10.172Z,99.99
2023-09-22T04:09:10.172Z,99.99
2023-09-22T04:10:10.155Z,99.99
2023-09-22T04:11:10.149Z,99.99
2023-09-22T04:12:10.126Z,99.99
2023-09-22T04:13:10.143Z,99.99
2023-09-22T04:14:10.104Z,99.99
2023-09-22T04:15:10.105Z,99.99
2023-09-22T04:16:10.194Z,99.99
2023-09-22T04:17:10.169Z,99.99
2023-09-22T04:18:10.122Z,99.99
2023-09-22T04:19:10.177Z,99.99
2023-09-22T04:20:10.119Z,99.99
2023-09-22T04:21:10.074Z,99.99
2023-09-22T04:22:10.013Z,99.99
2023-09-22T04:23:10.034Z,99.99
2023-09-22T04:24:09.993Z,99.99
2023-09-22T04:25:10.042Z,99.99
2023-09-22T04:26:09.974Z,99.99
2023-09-22T04:27:10.004Z,99.99
2023-09-22T04:28:09.959Z,99.99
2023-09-22T04:29:09.977Z,99.99
2023-09-22T04:30:09.948Z,99.99
2023-09-22T04:31:10.006Z,99.99
2023-09-22T04:32:09.902Z,99.99
2023-09-22T04:33:09.959Z,99.99
2023-09-22T04:34:09.889Z,99.99
2023-09-22T04:35:09.886Z,99.99
2023-09-22T04:36:09.871Z,99.99
2023-09-22T04:37:09.946Z,99.99
2023-09-22T04:38:09.839Z,99.99
2023-09-22T04:39:09.841Z,99.99
2023-09-22T04:40:09.828Z,99.99
2023-09-22T04:41:09.843Z,99.99
2023-09-22T04:42:09.792Z,99.99
2023-09-22T04:43:10.025Z,99.99
2023-09-22T04:44:09.772Z,99.99
2023-09-22T04:45:09.798Z,99.99
2023-09-22T04:46:09.837Z,99.99
2023-09-22T04:47:09.726Z,99.99
2023-09-22T04:48:09.748Z,99.99
2023-09-22T04:49:09.818Z,99.99
2023-09-22T04:50:09.676Z,99.99
2023-09-22T04:51:09.673Z,99.99
2023-09-22T04:52:09.688Z,99.99
2023-09-22T04:53:09.656Z,99.99
2023-09-22T04:54:09.665Z,99.99
2023-09-22T04:55:09.686Z,99.99
2023-09-22T04:56:09.645Z,99.99
2023-09-22T04:57:09.612Z,99.99
2023-09-22T04:58:09.628Z,99.99
2023-09-22T04:59:09.623Z,99.99
2023-09-22T05:00:09.602Z,99.99
2023-09-22T05:01:09.885Z,99.99
2023-09-22T05:02:09.593Z,99.99
2023-09-22T05:03:09.738Z,99.99
2023-09-22T05:04:09.579Z,99.99
2023-09-22T05:05:09.505Z,99.99
2023-09-22T05:06:09.474Z,99.99
2023-09-22T05:07:09.535Z,99.99
2023-09-22T05:08:09.478Z,99.99
2023-09-22T05:09:09.465Z,99.99
2023-09-22T05:10:09.575Z,99.99
2023-09-22T05:11:09.456Z,99.99
2023-09-22T05:12:09.472Z,99.99
2023-09-22T05:13:09.482Z,99.99
2023-09-22T05:14:09.402Z,99.99
2023-09-22T05:15:09.416Z,99.99
2023-09-22T05:16:09.500Z,99.99
2023-09-22T05:17:09.387Z,99.99
2023-09-22T05:18:09.396Z,99.99
2023-09-22T05:19:09.404Z,99.99
2023-09-22T05:20:09.331Z,99.99
2023-09-22T05:21:09.341Z,99.99
2023-09-22T05:22:09.350Z,99.99
2023-09-22T05:23:09.316Z,99.99
2023-09-22T05:24:09.292Z,99.99
2023-09-22T05:25:09.371Z,99.99
2023-09-22T05:26:09.252Z,99.99
2023-09-22T05:27:09.313Z,99.99
2023-09-22T05:28:09.289Z,99.99
2023-09-22T05:29:09.248Z,99.99
2023-09-22T05:30:09.220Z,99.99
2023-09-22T05:31:13.538Z,99.99
2023-09-22T05:32:09.190Z,99.99
2023-09-22T05:33:09.524Z,99.99
2023-09-22T05:34:09.230Z,99.99
2023-09-22T05:35:09.188Z,99.99
2023-09-22T05:36:09.174Z,99.99
2023-09-22T05:37:09.159Z,99.99
2023-09-22T05:38:09.139Z,99.99
2023-09-22T05:39:09.172Z,99.99
2023-09-22T05:40:09.124Z,99.99
2023-09-22T05:41:09.143Z,99.99
2023-09-22T05:42:09.092Z,99.99
2023-09-22T05:43:09.182Z,99.99
2023-09-22T05:44:09.059Z,99.99
2023-09-22T05:45:09.084Z,99.99
2023-09-22T05:46:09.143Z,99.99
2023-09-22T05:47:09.043Z,99.99
2023-09-22T05:48:09.081Z,99.99
2023-09-22T05:49:09.035Z,99.99
2023-09-22T05:50:08.997Z,99.99
2023-09-22T05:51:09.008Z,99.99
2023-09-22T05:52:09.019Z,99.99
2023-09-22T05:53:09.009Z,99.99
2023-09-22T05:54:08.950Z,99.99
2023-09-22T05:55:09.017Z,99.99
2023-09-22T05:56:08.943Z,99.99
2023-09-22T05:57:08.937Z,99.99
2023-09-22T05:58:08.966Z,99.99
2023-09-22T05:59:08.922Z,99.99
2023-09-22T06:00:08.883Z,99.99
2023-09-22T06:01:08.986Z,99.99
2023-09-22T06:02:08.949Z,99.99
2023-09-22T06:03:08.903Z,99.99
2023-09-22T06:04:08.921Z,99.99
2023-09-22T06:05:08.876Z,99.99
2023-09-22T06:06:08.816Z,99.99
2023-09-22T06:07:08.868Z,99.99
2023-09-22T06:08:08.795Z,99.99
2023-09-22T06:09:08.822Z,99.99
2023-09-22T06:10:08.789Z,99.99
2023-09-22T06:11:08.806Z,99.99
2023-09-22T06:12:08.784Z,99.99
2023-09-22T06:13:08.808Z,99.99
2023-09-22T06:14:08.725Z,99.99
2023-09-22T06:15:08.757Z,99.99
2023-09-22T06:16:08.765Z,99.99
2023-09-22T06:17:08.710Z,99.99
2023-09-22T06:18:08.695Z,99.99
2023-09-22T06:19:08.709Z,99.99
2023-09-22T06:20:08.737Z,99.99
2023-09-22T06:21:08.691Z,99.99
2023-09-22T06:22:08.719Z,99.99
2023-09-22T06:23:08.654Z,99.99
2023-09-22T06:24:08.620Z,99.99
2023-09-22T06:25:08.656Z,99.99
2023-09-22T06:26:08.593Z,99.99
2023-09-22T06:27:08.634Z,99.99
2023-09-22T06:28:08.623Z,99.99
2023-09-22T06:29:08.603Z,99.99
2023-09-22T06:30:08.564Z,99.99
2023-09-22T06:31:08.616Z,99.99
2023-09-22T06:32:08.533Z,99.99
2023-09-22T06:33:08.617Z,99.99
2023-09-22T06:34:08.590Z,99.99
2023-09-22T06:35:08.561Z,99.99
2023-09-22T06:36:08.486Z,99.99
2023-09-22T06:37:08.573Z,99.99
2023-09-22T06:38:08.509Z,99.99
2023-09-22T06:39:08.498Z,99.99
2023-09-22T06:40:08.491Z,99.99
2023-09-22T06:41:08.481Z,99.99
2023-09-22T06:42:08.423Z,99.99
2023-09-22T06:43:20.735Z,99.99
2023-09-22T06:44:08.420Z,99.99
2023-09-22T06:45:08.418Z,99.99
2023-09-22T06:46:08.426Z,99.99
2023-09-22T06:47:08.485Z,99.99
2023-09-22T06:48:08.416Z,99.99
2023-09-22T06:49:08.409Z,99.99
2023-09-22T06:50:08.363Z,99.99
2023-09-22T06:51:08.334Z,99.99
2023-09-22T06:52:08.398Z,99.99
2023-09-22T06:53:08.321Z,99.99
2023-09-22T06:54:08.304Z,99.99
2023-09-22T06:55:08.369Z,99.99
2023-09-22T06:56:08.430Z,99.99
2023-09-22T06:57:08.275Z,99.99
2023-09-22T06:58:08.324Z,99.99
2023-09-22T06:59:08.257Z,99.99
2023-09-22T07:00:08.237Z,99.99
2023-09-22T07:01:08.308Z,99.99
2023-09-22T07:02:08.262Z,99.99
2023-09-22T07:03:08.287Z,99.99
2023-09-22T07:04:08.289Z,99.99
2023-09-22T07:05:08.180Z,99.99
2023-09-22T07:06:08.167Z,99.99
2023-09-22T07:07:08.244Z,99.99
2023-09-22T07:08:08.142Z,99.99
2023-09-22T07:09:08.150Z,99.99
2023-09-22T07:10:08.169Z,99.99
2023-09-22T07:11:08.140Z,99.99
2023-09-22T07:12:08.108Z,99.99
2023-09-22T07:13:08.172Z,99.99
2023-09-22T07:14:08.081Z,99.99
2023-09-22T07:15:08.117Z,99.99
2023-09-22T07:16:08.164Z,99.99
2023-09-22T07:17:08.173Z,99.99
2023-09-22T07:18:08.134Z,99.99
2023-09-22T07:19:08.087Z,99.99
2023-09-22T07:20:08.022Z,99.99
2023-09-22T07:21:08.088Z,99.99
2023-09-22T07:22:08.029Z,99.99
2023-09-22T07:23:08.014Z,99.99
2023-09-22T07:24:07.996Z,99.99
2023-09-22T07:25:08.070Z,99.99
2023-09-22T07:26:08.658Z,99.99
2023-09-22T07:27:08.004Z,99.99
2023-09-22T07:28:07.966Z,99.99
2023-09-22T07:29:07.929Z,99.99
2023-09-22T07:30:07.926Z,99.99
2023-09-22T07:31:07.997Z,99.99
2023-09-22T07:32:07.921Z,99.99
2023-09-22T07:33:07.878Z,99.99
2023-09-22T07:34:07.908Z,99.99
2023-09-22T07:35:07.850Z,99.99
2023-09-22T07:36:07.843Z,99.99
2023-09-22T07:37:18.978Z,99.99
2023-09-22T07:38:07.841Z,99.99
2023-09-22T07:39:07.817Z,99.99
2023-09-22T07:40:07.865Z,99.99
2023-09-22T07:41:07.817Z,99.99
2023-09-22T07:42:07.798Z,99.99
2023-09-22T07:43:07.780Z,99.99
2023-09-22T07:44:07.755Z,99.99
2023-09-22T07:45:07.755Z,99.99
2023-09-22T07:46:08.134Z,99.99
2023-09-22T07:47:07.722Z,99.99
2023-09-22T07:48:07.773Z,99.99
2023-09-22T07:49:07.716Z,99.99
2023-09-22T07:50:07.803Z,99.99
2023-09-22T07:51:07.689Z,99.99
2023-09-22T07:52:07.719Z,99.99
2023-09-22T07:53:07.640Z,99.99
2023-09-22T07:54:07.650Z,99.99
2023-09-22T07:55:07.762Z,99.99
2023-09-22T07:56:07.938Z,99.99
2023-09-22T07:57:07.603Z,99.99
2023-09-22T07:58:07.659Z,99.99
2023-09-22T07:59:13.399Z,99.99
2023-09-22T08:00:07.589Z,99.99
2023-09-22T08:01:07.573Z,99.99
2023-09-22T08:02:07.595Z,99.99
2023-09-22T08:03:07.597Z,99.99
2023-09-22T08:04:07.591Z,99.99
2023-09-22T08:05:07.531Z,99.99
2023-09-22T08:06:07.538Z,99.99
2023-09-22T08:07:07.504Z,99.99
2023-09-22T08:08:07.499Z,99.99
2023-09-22T08:09:07.489Z,99.99
2023-09-22T08:10:07.996Z,99.99
2023-09-22T08:11:07.467Z,99.99
2023-09-22T08:12:07.470Z,99.99
2023-09-22T08:13:07.442Z,99.99
2023-09-22T08:14:07.430Z,99.99
2023-09-22T08:15:07.400Z,99.99
2023-09-22T08:16:07.477Z,99.99
2023-09-22T08:17:07.398Z,99.99
2023-09-22T08:18:07.628Z,99.99
2023-09-22T08:19:07.412Z,99.99
2023-09-22T08:20:07.378Z,99.99
2023-09-22T08:21:07.336Z,99.99
2023-09-22T08:22:07.424Z,99.40
2023-09-22T08:23:07.323Z,99.80
2023-09-22T08:24:07.338Z,99.99
2023-09-22T08:25:07.390Z,99.99
2023-09-22T08:26:07.313Z,99.99
2023-09-22T08:27:07.277Z,99.99
2023-09-22T08:28:07.352Z,99.99
2023-09-22T08:29:07.257Z,99.99
2023-09-22T08:30:07.270Z,99.99
2023-09-22T08:31:07.247Z,99.99
2023-09-22T08:32:10.054Z,99.99
2023-09-22T08:33:07.227Z,99.99
2023-09-22T08:34:07.290Z,99.99
2023-09-22T08:35:07.199Z,99.66
2023-09-22T08:36:07.210Z,99.99
2023-09-22T08:37:07.204Z,99.99
2023-09-22T08:38:07.181Z,99.99
2023-09-22T08:39:07.147Z,99.99
2023-09-22T08:40:07.172Z,99.91
2023-09-22T08:41:07.111Z,99.99
2023-09-22T08:42:07.138Z,99.99
2023-09-22T08:43:07.312Z,99.99
2023-09-22T08:44:07.114Z,99.91
2023-09-22T08:45:07.091Z,99.99
2023-09-22T08:46:07.160Z,99.81
2023-09-22T08:47:07.173Z,99.99
2023-09-22T08:48:07.219Z,99.81
2023-09-22T08:49:07.074Z,99.99
2023-09-22T08:50:07.062Z,99.99
2023-09-22T08:51:07.014Z,99.91
2023-09-22T08:52:07.057Z,99.99
2023-09-22T08:53:06.989Z,99.99
2023-09-22T08:54:06.993Z,99.10
2023-09-22T08:55:07.034Z,99.99
2023-09-22T08:56:07.007Z,99.91
2023-09-22T08:57:06.947Z,99.99
2023-09-22T08:58:07.071Z,99.01
2023-09-22T08:59:06.911Z,99.99
2023-09-22T09:00:06.925Z,99.99
2023-09-22T09:01:06.969Z,99.99
2023-09-22T09:02:07.005Z,98.70
2023-09-22T09:03:06.953Z,98.90
2023-09-22T09:04:06.982Z,99.61
2023-09-22T09:05:06.859Z,99.99
2023-09-22T09:06:06.869Z,99.30
2023-09-22T09:07:06.847Z,99.30
2023-09-22T09:08:06.830Z,99.01
2023-09-22T09:09:06.808Z,99.99
2023-09-22T09:10:06.859Z,99.99
2023-09-22T09:11:06.782Z,99.87
2023-09-22T09:12:06.801Z,98.25
2023-09-22T09:13:06.821Z,96.93
2023-09-22T09:14:06.767Z,97.85
2023-09-22T09:15:06.737Z,98.25
2023-09-22T09:16:06.803Z,98.65
2023-09-22T09:17:06.810Z,97.44
2023-09-22T09:18:06.761Z,97.94
2023-09-22T09:19:06.821Z,98.45
2023-09-22T09:20:06.721Z,98.65
2023-09-22T09:21:06.733Z,98.65
2023-09-22T09:22:06.758Z,99.26
2023-09-22T09:23:06.677Z,97.54
2023-09-22T09:24:06.676Z,97.14
2023-09-22T09:25:06.644Z,97.44
2023-09-22T09:26:06.637Z,96.93
2023-09-22T09:27:06.617Z,97.34
2023-09-22T09:28:06.645Z,97.54
2023-09-22T09:29:06.585Z,96.63
2023-09-22T09:30:06.591Z,97.03
2023-09-22T09:31:06.607Z,97.14
2023-09-22T09:32:06.628Z,96.63
2023-09-22T09:33:06.584Z,96.83
2023-09-22T09:34:06.571Z,97.03
2023-09-22T09:35:06.536Z,96.83
2023-09-22T09:36:06.526Z,97.03
2023-09-22T09:37:06.530Z,96.93
2023-09-22T09:38:06.525Z,96.42
2023-09-22T09:39:06.542Z,95.31
2023-09-22T09:40:06.551Z,96.02
2023-09-22T09:41:06.476Z,96.12
2023-09-22T09:42:06.481Z,95.92
2023-09-22T09:43:06.471Z,95.76
2023-09-22T09:44:06.453Z,96.07
2023-09-22T09:45:06.406Z,96.17
2023-09-22T09:46:06.455Z,96.27
2023-09-22T09:47:06.413Z,96.27
2023-09-22T09:48:06.468Z,96.17
2023-09-22T09:49:06.464Z,95.36
2023-09-22T09:50:06.395Z,96.07
2023-09-22T09:51:06.340Z,95.97
2023-09-22T09:52:06.388Z,95.76
2023-09-22T09:53:06.322Z,95.15
2023-09-22T09:54:06.340Z,96.07
2023-09-22T09:55:06.367Z,96.07
2023-09-22T09:56:06.322Z,95.56
2023-09-22T09:57:06.280Z,95.97
2023-09-22T09:58:06.315Z,96.07
2023-09-22T09:59:07.140Z,95.97
2023-09-22T10:00:06.299Z,95.36
2023-09-22T10:01:06.382Z,95.56
2023-09-22T10:02:06.323Z,96.17
2023-09-22T10:03:06.237Z,97.69
2023-09-22T10:04:06.345Z,96.67
2023-09-22T10:05:06.188Z,96.11
2023-09-22T10:06:06.212Z,98.24
2023-09-22T10:07:06.206Z,98.65
2023-09-22T10:08:06.206Z,98.65
2023-09-22T10:09:06.147Z,99.99
2023-09-22T10:10:06.286Z,99.99
2023-09-22T10:11:06.124Z,99.99
2023-09-22T10:12:07.146Z,99.99
2023-09-22T10:13:06.131Z,99.99
2023-09-22T10:14:06.130Z,99.99
2023-09-22T10:15:06.089Z,99.99
2023-09-22T10:16:06.279Z,99.99
2023-09-22T10:17:06.119Z,99.99
2023-09-22T10:18:06.119Z,99.99
2023-09-22T10:19:06.069Z,99.99
2023-09-22T10:20:06.049Z,99.99
2023-09-22T10:21:06.026Z,99.99
2023-09-22T10:22:06.054Z,99.99
2023-09-22T10:23:05.992Z,99.96
2023-09-22T10:24:06.003Z,99.99
2023-09-22T10:25:05.973Z,99.99
2023-09-22T10:26:06.089Z,99.99
2023-09-22T10:27:05.973Z,99.99
2023-09-22T10:28:10.153Z,99.99
2023-09-22T10:29:05.931Z,99.99
2023-09-22T10:30:05.956Z,99.99
2023-09-22T10:31:06.020Z,99.99
2023-09-22T10:32:05.948Z,99.99
2023-09-22T10:33:05.913Z,99.99
2023-09-22T10:34:05.905Z,99.30
2023-09-22T10:35:05.867Z,99.19
2023-09-22T10:36:05.875Z,99.40
2023-09-22T10:37:05.870Z,99.50
2023-09-22T10:38:07.804Z,99.15
2023-09-22T10:39:05.817Z,99.99
2023-09-22T10:40:05.880Z,99.99
2023-09-22T10:41:05.847Z,99.46
2023-09-22T10:42:05.811Z,99.99
2023-09-22T10:43:05.860Z,99.99
2023-09-22T10:44:05.793Z,99.99
2023-09-22T10:45:05.749Z,99.99
2023-09-22T10:46:05.868Z,99.99
2023-09-22T10:47:05.790Z,99.30
2023-09-22T10:48:05.842Z,97.64
2023-09-22T10:49:05.780Z,97.99
2023-09-22T10:50:05.740Z,97.58
2023-09-22T10:51:05.711Z,98.35
2023-09-22T10:52:05.740Z,99.56
2023-09-22T10:53:05.702Z,95.42
2023-09-22T10:54:05.686Z,95.06
2023-09-22T10:55:05.646Z,96.27
2023-09-22T10:56:05.723Z,97.18
2023-09-22T10:57:05.621Z,95.97
2023-09-22T10:58:05.642Z,95.76
2023-09-22T10:59:05.618Z,95.46
2023-09-22T11:00:05.614Z,95.76
2023-09-22T11:01:05.766Z,96.47
2023-09-22T11:02:05.653Z,94.55
2023-09-22T11:03:05.587Z,94.04
2023-09-22T11:04:05.599Z,94.35
2023-09-22T11:05:05.650Z,95.46
2023-09-22T11:06:05.578Z,95.97
2023-09-22T11:07:05.503Z,95.86
2023-09-22T11:08:05.555Z,96.98
2023-09-22T11:09:05.490Z,96.67
2023-09-22T11:10:05.483Z,96.88
2023-09-22T11:11:05.543Z,96.67
2023-09-22T11:12:05.484Z,96.78
2023-09-22T11:13:05.450Z,95.26
2023-09-22T11:14:05.462Z,94.85
2023-09-22T11:15:05.419Z,95.86
2023-09-22T11:16:05.498Z,96.51
2023-09-22T11:17:05.444Z,96.62
2023-09-22T11:18:05.441Z,96.78
2023-09-22T11:19:05.403Z,97.18
2023-09-22T11:20:05.410Z,97.69
2023-09-22T11:21:05.365Z,96.17
2023-09-22T11:22:05.359Z,95.20
2023-09-22T11:23:05.335Z,95.30
2023-09-22T11:24:05.337Z,95.91
2023-09-22T11:25:05.314Z,95.10
2023-09-22T11:26:05.339Z,95.10
2023-09-22T11:27:05.283Z,93.68
2023-09-22T11:28:05.305Z,94.39
2023-09-22T11:29:05.267Z,94.59
2023-09-22T11:30:05.285Z,94.85
2023-09-22T11:31:05.325Z,95.97
2023-09-22T11:32:05.312Z,96.67
2023-09-22T11:33:05.241Z,96.37
2023-09-22T11:34:05.395Z,95.76
2023-09-22T11:35:23.634Z,96.98
2023-09-22T11:36:05.202Z,96.88
2023-09-22T11:37:05.170Z,96.57
2023-09-22T11:38:05.186Z,95.62
2023-09-22T11:39:05.165Z,95.92
2023-09-22T11:40:05.160Z,97.14
2023-09-22T11:41:05.150Z,96.53
2023-09-22T11:42:05.222Z,96.63
2023-09-22T11:43:05.109Z,97.14
2023-09-22T11:44:05.107Z,96.53
2023-09-22T11:45:05.101Z,95.62
2023-09-22T11:46:05.198Z,95.01
2023-09-22T11:47:05.151Z,95.62
2023-09-22T11:48:05.165Z,95.11
2023-09-22T11:49:05.072Z,94.65
2023-09-22T11:50:05.023Z,94.35
2023-09-22T11:51:05.039Z,95.46
2023-09-22T11:52:05.035Z,95.06
2023-09-22T11:53:05.009Z,94.65
2023-09-22T11:54:05.000Z,95.76
2023-09-22T11:55:05.010Z,95.36
2023-09-22T11:56:04.972Z,95.92
2023-09-22T11:57:04.969Z,94.20
2023-09-22T11:58:04.958Z,93.39
2023-09-22T11:59:04.960Z,94.10
2023-09-22T12:00:04.920Z,92.88
2023-09-22T12:01:04.935Z,92.99
2023-09-22T12:02:06.746Z,93.39
2023-09-22T12:03:04.954Z,93.70
2023-09-22T12:04:04.946Z,92.68
2023-09-22T12:05:04.898Z,93.79
2023-09-22T12:06:04.849Z,92.93
2023-09-22T12:07:04.873Z,92.79
2023-09-22T12:08:04.837Z,93.74
2023-09-22T12:09:04.849Z,93.90
2023-09-22T12:10:04.812Z,92.48
2023-09-22T12:11:04.814Z,93.08
2023-09-22T12:12:04.870Z,92.18
2023-09-22T12:13:04.805Z,93.29
2023-09-22T12:14:04.814Z,94.20
2023-09-22T12:15:04.787Z,92.88
2023-09-22T12:16:04.816Z,92.08
2023-09-22T12:17:04.811Z,91.67
2023-09-22T12:18:04.813Z,90.66
2023-09-22T12:19:04.795Z,90.56
2023-09-22T12:20:04.775Z,91.16
2023-09-22T12:21:04.805Z,91.06
2023-09-22T12:22:04.905Z,91.02
2023-09-22T12:23:04.904Z,91.22
2023-09-22T12:24:04.868Z,90.31
2023-09-22T12:25:04.883Z,90.62
2023-09-22T12:26:04.841Z,90.21
2023-09-22T12:27:04.862Z,90.58
2023-09-22T12:28:04.746Z,89.66
2023-09-22T12:29:04.834Z,90.27
2023-09-22T12:30:04.792Z,90.58
2023-09-22T12:31:04.807Z,90.47
2023-09-22T12:32:04.823Z,89.36
2023-09-22T12:33:04.855Z,89.97
2023-09-22T12:34:04.761Z,89.26
2023-09-22T12:35:04.744Z,89.87
2023-09-22T12:36:04.547Z,89.76
2023-09-22T12:37:04.751Z,87.84
2023-09-22T12:38:04.721Z,87.04
2023-09-22T12:39:04.766Z,86.93
2023-09-22T12:40:04.614Z,87.24
2023-09-22T12:41:04.682Z,86.73
2023-09-22T12:42:04.828Z,86.73
2023-09-22T12:43:04.670Z,86.93
2023-09-22T12:44:04.656Z,86.83
2023-09-22T12:45:04.648Z,87.13
2023-09-22T12:46:04.566Z,87.74
2023-09-22T12:47:04.692Z,88.15
2023-09-22T12:48:04.632Z,88.21
2023-09-22T12:49:04.612Z,86.29
2023-09-22T12:50:04.618Z,85.42
2023-09-22T12:51:04.622Z,86.22
2023-09-22T12:52:04.561Z,87.30